sensor_id;sensor_type;location;lat;lon;timestamp;temperature;humidity
61412;DHT22;47278;49.732;7.690;2023-02-18T00:02:17;12.20;99.90
61412;DHT22;47278;49.732;7.690;2023-02-18T00:04:43;12.20;99.90
61412;DHT22;47278;49.732;7.690;2023-02-18T00:07:08;12.20;99.90
61412;DHT22;47278;49.732;7.690;2023-02-18T00:09:34;12.20;99.90
61412;DHT22;47278;49.732;7.690;2023-02-18T00:11:59;12.30;99.90
61412;DHT22;47278;49.732;7.690;2023-02-18T00:14:25;12.30;99.90
61412;DHT22;47278;49.732;7.690;2023-02-18T00:16:50;12.30;99.90
61412;DHT22;47278;49.732;7.690;2023-02-18T00:19:17;12.20;99.90
61412;DHT22;47278;49.732;7.690;2023-02-18T00:21:43;12.20;99.90
61412;DHT22;47278;49.732;7.690;2023-02-18T00:24:10;12.20;99.90
61412;DHT22;47278;49.732;7.690;2023-02-18T00:26:36;12.00;99.90
61412;DHT22;47278;49.732;7.690;2023-02-18T00:29:02;12.00;99.90
61412;DHT22;47278;49.732;7.690;2023-02-18T00:31:29;12.00;99.90
61412;DHT22;47278;49.732;7.690;2023-02-18T00:33:56;12.00;99.90
61412;DHT22;47278;49.732;7.690;2023-02-18T00:36:21;12.00;99.90
61412;DHT22;47278;49.732;7.690;2023-02-18T00:38:48;12.10;99.90
61412;DHT22;47278;49.732;7.690;2023-02-18T00:41:14;12.10;99.90
61412;DHT22;47278;49.732;7.690;2023-02-18T00:43:40;12.10;99.90
61412;DHT22;47278;49.732;7.690;2023-02-18T00:46:05;12.00;99.90
61412;DHT22;47278;49.732;7.690;2023-02-18T00:48:32;12.00;99.90
61412;DHT22;47278;49.732;7.690;2023-02-18T00:50:57;12.00;99.90
61412;DHT22;47278;49.732;7.690;2023-02-18T00:53:25;12.10;99.90
61412;DHT22;47278;49.732;7.690;2023-02-18T00:55:51;12.10;99.90
61412;DHT22;47278;49.732;7.690;2023-02-18T00:58:16;12.10;99.90
61412;DHT22;47278;49.732;7.690;2023-02-18T01:00:42;12.10;99.90
61412;DHT22;47278;49.732;7.690;2023-02-18T01:03:08;12.20;99.90
61412;DHT22;47278;49.732;7.690;2023-02-18T01:05:33;12.20;99.90
61412;DHT22;47278;49.732;7.690;2023-02-18T01:07:59;12.20;99.90
61412;DHT22;47278;49.732;7.690;2023-02-18T01:10:25;12.20;99.90
61412;DHT22;47278;49.732;7.690;2023-02-18T01:12:50;12.20;99.90
61412;DHT22;47278;49.732;7.690;2023-02-18T01:15:17;10.40;99.90
61412;DHT22;47278;49.732;7.690;2023-02-18T01:17:43;12.20;99.90
61412;DHT22;47278;49.732;7.690;2023-02-18T01:20:09;12.30;99.90
61412;DHT22;47278;49.732;7.690;2023-02-18T01:22:35;12.30;99.90
61412;DHT22;47278;49.732;7.690;2023-02-18T01:25:00;12.30;99.90
61412;DHT22;47278;49.732;7.690;2023-02-18T01:27:26;12.30;99.90
61412;DHT22;47278;49.732;7.690;2023-02-18T01:29:51;12.30;99.90
61412;DHT22;47278;49.732;7.690;2023-02-18T01:32:17;12.20;99.90
61412;DHT22;47278;49.732;7.690;2023-02-18T01:34:42;12.20;99.90
61412;DHT22;47278;49.732;7.690;2023-02-18T01:37:08;12.30;99.90
61412;DHT22;47278;49.732;7.690;2023-02-18T01:39:33;12.30;99.90
61412;DHT22;47278;49.732;7.690;2023-02-18T01:41:59;12.30;99.90
61412;DHT22;47278;49.732;7.690;2023-02-18T01:44:26;12.30;99.90
61412;DHT22;47278;49.732;7.690;2023-02-18T01:46:51;12.30;99.90
61412;DHT22;47278;49.732;7.690;2023-02-18T01:49:38;12.30;99.90
61412;DHT22;47278;49.732;7.690;2023-02-18T01:52:08;12.60;99.90
61412;DHT22;47278;49.732;7.690;2023-02-18T01:54:35;12.30;99.90
61412;DHT22;47278;49.732;7.690;2023-02-18T01:57:17;12.30;99.90
61412;DHT22;47278;49.732;7.690;2023-02-18T01:59:45;12.20;99.90
61412;DHT22;47278;49.732;7.690;2023-02-18T02:02:13;12.20;99.90
61412;DHT22;47278;49.732;7.690;2023-02-18T02:04:39;12.20;99.90
61412;DHT22;47278;49.732;7.690;2023-02-18T02:07:05;12.20;99.90
61412;DHT22;47278;49.732;7.690;2023-02-18T02:09:31;12.20;99.90
61412;DHT22;47278;49.732;7.690;2023-02-18T02:15:03;12.10;99.90
61412;DHT22;47278;49.732;7.690;2023-02-18T02:30:35;12.00;99.90
61412;DHT22;47278;49.732;7.690;2023-02-18T02:35:37;12.00;99.90
61412;DHT22;47278;49.732;7.690;2023-02-18T02:38:08;11.90;99.90
61412;DHT22;47278;49.732;7.690;2023-02-18T02:40:37;11.90;99.90
61412;DHT22;47278;49.732;7.690;2023-02-18T02:48:06;11.70;99.90
61412;DHT22;47278;49.732;7.690;2023-02-18T02:50:36;11.70;99.90
61412;DHT22;47278;49.732;7.690;2023-02-18T02:53:05;11.70;99.90
61412;DHT22;47278;49.732;7.690;2023-02-18T02:55:36;11.60;99.90
61412;DHT22;47278;49.732;7.690;2023-02-18T02:58:01;11.60;99.90
61412;DHT22;47278;49.732;7.690;2023-02-18T03:00:32;11.60;99.90
61412;DHT22;47278;49.732;7.690;2023-02-18T03:09:18;11.40;99.90
61412;DHT22;47278;49.732;7.690;2023-02-18T03:11:10;11.40;99.90
61412;DHT22;47278;49.732;7.690;2023-02-18T03:16:22;11.40;99.90
61412;DHT22;47278;49.732;7.690;2023-02-18T03:18:58;11.30;99.90
61412;DHT22;47278;49.732;7.690;2023-02-18T03:21:29;11.40;99.90
61412;DHT22;47278;49.732;7.690;2023-02-18T03:23:55;11.40;99.90
61412;DHT22;47278;49.732;7.690;2023-02-18T03:26:23;11.40;99.90
61412;DHT22;47278;49.732;7.690;2023-02-18T03:28:49;11.50;99.90
61412;DHT22;47278;49.732;7.690;2023-02-18T03:31:17;11.50;99.90
61412;DHT22;47278;49.732;7.690;2023-02-18T03:33:44;11.60;99.90
61412;DHT22;47278;49.732;7.690;2023-02-18T03:36:10;11.60;99.90
61412;DHT22;47278;49.732;7.690;2023-02-18T03:38:38;11.60;99.90
61412;DHT22;47278;49.732;7.690;2023-02-18T03:41:04;11.70;99.90
61412;DHT22;47278;49.732;7.690;2023-02-18T03:43:30;11.70;99.90
61412;DHT22;47278;49.732;7.690;2023-02-18T03:45:56;11.70;99.90
61412;DHT22;47278;49.732;7.690;2023-02-18T03:48:21;11.70;99.90
61412;DHT22;47278;49.732;7.690;2023-02-18T03:50:47;11.70;99.90
61412;DHT22;47278;49.732;7.690;2023-02-18T03:53:13;11.70;99.90
61412;DHT22;47278;49.732;7.690;2023-02-18T03:55:38;11.70;99.90
61412;DHT22;47278;49.732;7.690;2023-02-18T03:58:04;11.70;99.90
61412;DHT22;47278;49.732;7.690;2023-02-18T04:00:29;11.70;99.90
61412;DHT22;47278;49.732;7.690;2023-02-18T04:02:55;11.70;99.90
61412;DHT22;47278;49.732;7.690;2023-02-18T04:05:20;11.80;99.90
61412;DHT22;47278;49.732;7.690;2023-02-18T04:07:46;11.80;99.90
61412;DHT22;47278;49.732;7.690;2023-02-18T04:10:11;11.80;99.90
61412;DHT22;47278;49.732;7.690;2023-02-18T04:12:37;11.80;99.90
61412;DHT22;47278;49.732;7.690;2023-02-18T04:15:03;11.80;99.90
61412;DHT22;47278;49.732;7.690;2023-02-18T04:17:28;11.80;99.90
61412;DHT22;47278;49.732;7.690;2023-02-18T04:19:54;11.80;99.90
61412;DHT22;47278;49.732;7.690;2023-02-18T04:22:19;11.80;99.90
61412;DHT22;47278;49.732;7.690;2023-02-18T04:24:45;11.80;99.90
61412;DHT22;47278;49.732;7.690;2023-02-18T04:27:10;11.80;99.90
61412;DHT22;47278;49.732;7.690;2023-02-18T04:29:36;11.80;99.90
61412;DHT22;47278;49.732;7.690;2023-02-18T04:32:01;11.80;99.90
61412;DHT22;47278;49.732;7.690;2023-02-18T04:34:27;11.80;99.90
61412;DHT22;47278;49.732;7.690;2023-02-18T04:36:52;11.80;99.90
61412;DHT22;47278;49.732;7.690;2023-02-18T04:39:18;11.80;99.90
61412;DHT22;47278;49.732;7.690;2023-02-18T04:41:44;11.80;99.90
61412;DHT22;47278;49.732;7.690;2023-02-18T04:44:09;11.80;99.90
61412;DHT22;47278;49.732;7.690;2023-02-18T04:46:35;11.70;99.90
61412;DHT22;47278;49.732;7.690;2023-02-18T04:49:00;11.70;99.90
61412;DHT22;47278;49.732;7.690;2023-02-18T04:51:26;11.70;99.90
61412;DHT22;47278;49.732;7.690;2023-02-18T04:53:51;11.70;99.90
61412;DHT22;47278;49.732;7.690;2023-02-18T04:56:17;11.70;99.90
61412;DHT22;47278;49.732;7.690;2023-02-18T04:58:42;11.70;99.90
61412;DHT22;47278;49.732;7.690;2023-02-18T05:01:08;14.50;99.90
61412;DHT22;47278;49.732;7.690;2023-02-18T05:03:34;11.60;99.90
61412;DHT22;47278;49.732;7.690;2023-02-18T05:06:00;11.70;99.90
61412;DHT22;47278;49.732;7.690;2023-02-18T05:08:25;11.70;99.90
61412;DHT22;47278;49.732;7.690;2023-02-18T05:10:51;11.70;99.90
61412;DHT22;47278;49.732;7.690;2023-02-18T05:13:16;11.70;99.90
61412;DHT22;47278;49.732;7.690;2023-02-18T05:15:42;12.90;99.90
61412;DHT22;47278;49.732;7.690;2023-02-18T05:18:08;11.70;99.90
61412;DHT22;47278;49.732;7.690;2023-02-18T05:20:33;11.80;99.90
61412;DHT22;47278;49.732;7.690;2023-02-18T05:22:59;11.70;99.90
61412;DHT22;47278;49.732;7.690;2023-02-18T05:25:25;11.70;99.90
61412;DHT22;47278;49.732;7.690;2023-02-18T05:27:50;11.70;99.90
61412;DHT22;47278;49.732;7.690;2023-02-18T05:30:16;11.70;99.90
61412;DHT22;47278;49.732;7.690;2023-02-18T05:32:41;11.70;99.90
61412;DHT22;47278;49.732;7.690;2023-02-18T05:35:07;11.70;99.90
61412;DHT22;47278;49.732;7.690;2023-02-18T05:37:33;11.70;99.90
61412;DHT22;47278;49.732;7.690;2023-02-18T05:39:58;11.70;99.90
61412;DHT22;47278;49.732;7.690;2023-02-18T05:42:24;11.70;99.90
61412;DHT22;47278;49.732;7.690;2023-02-18T05:44:49;11.60;99.90
61412;DHT22;47278;49.732;7.690;2023-02-18T05:47:15;11.60;99.90
61412;DHT22;47278;49.732;7.690;2023-02-18T05:49:40;11.70;99.90
61412;DHT22;47278;49.732;7.690;2023-02-18T05:52:06;11.60;99.90
61412;DHT22;47278;49.732;7.690;2023-02-18T05:54:32;11.60;99.90
61412;DHT22;47278;49.732;7.690;2023-02-18T05:56:58;11.60;99.90
61412;DHT22;47278;49.732;7.690;2023-02-18T05:59:23;11.60;99.90
61412;DHT22;47278;49.732;7.690;2023-02-18T06:01:49;11.60;99.90
61412;DHT22;47278;49.732;7.690;2023-02-18T06:04:15;11.60;99.90
61412;DHT22;47278;49.732;7.690;2023-02-18T06:06:40;11.60;99.90
61412;DHT22;47278;49.732;7.690;2023-02-18T06:09:06;11.60;99.90
61412;DHT22;47278;49.732;7.690;2023-02-18T06:11:32;11.60;99.90
61412;DHT22;47278;49.732;7.690;2023-02-18T06:13:58;11.50;99.90
61412;DHT22;47278;49.732;7.690;2023-02-18T06:16:23;11.50;99.90
61412;DHT22;47278;49.732;7.690;2023-02-18T06:18:49;11.50;99.90
61412;DHT22;47278;49.732;7.690;2023-02-18T06:21:14;11.60;99.90
61412;DHT22;47278;49.732;7.690;2023-02-18T06:23:40;11.60;99.90
61412;DHT22;47278;49.732;7.690;2023-02-18T06:26:06;11.50;99.90
61412;DHT22;47278;49.732;7.690;2023-02-18T06:28:31;11.50;99.90
61412;DHT22;47278;49.732;7.690;2023-02-18T06:30:57;11.50;99.90
61412;DHT22;47278;49.732;7.690;2023-02-18T06:33:22;11.60;99.90
61412;DHT22;47278;49.732;7.690;2023-02-18T06:35:55;11.50;99.90
61412;DHT22;47278;49.732;7.690;2023-02-18T06:38:21;11.50;99.90
61412;DHT22;47278;49.732;7.690;2023-02-18T06:40:46;11.50;99.90
61412;DHT22;47278;49.732;7.690;2023-02-18T06:43:12;11.50;99.90
61412;DHT22;47278;49.732;7.690;2023-02-18T06:45:38;11.50;99.90
61412;DHT22;47278;49.732;7.690;2023-02-18T06:48:04;11.50;99.90
61412;DHT22;47278;49.732;7.690;2023-02-18T06:50:29;11.50;99.90
61412;DHT22;47278;49.732;7.690;2023-02-18T06:52:55;11.50;99.90
61412;DHT22;47278;49.732;7.690;2023-02-18T06:55:20;11.50;99.90
61412;DHT22;47278;49.732;7.690;2023-02-18T06:57:46;11.40;99.90
61412;DHT22;47278;49.732;7.690;2023-02-18T07:00:12;11.50;99.90
61412;DHT22;47278;49.732;7.690;2023-02-18T07:02:37;11.50;99.90
61412;DHT22;47278;49.732;7.690;2023-02-18T07:05:03;11.50;99.90
61412;DHT22;47278;49.732;7.690;2023-02-18T07:07:29;11.60;99.90
61412;DHT22;47278;49.732;7.690;2023-02-18T07:09:54;11.60;99.90
61412;DHT22;47278;49.732;7.690;2023-02-18T07:12:20;11.60;99.90
61412;DHT22;47278;49.732;7.690;2023-02-18T07:14:45;11.50;99.90
61412;DHT22;47278;49.732;7.690;2023-02-18T07:17:11;11.60;99.90
61412;DHT22;47278;49.732;7.690;2023-02-18T07:19:36;11.60;99.90
61412;DHT22;47278;49.732;7.690;2023-02-18T07:22:02;11.50;99.90
61412;DHT22;47278;49.732;7.690;2023-02-18T07:24:27;11.60;99.90
61412;DHT22;47278;49.732;7.690;2023-02-18T07:26:53;11.50;99.90
61412;DHT22;47278;49.732;7.690;2023-02-18T07:29:18;11.50;99.90
61412;DHT22;47278;49.732;7.690;2023-02-18T07:31:44;11.50;99.90
61412;DHT22;47278;49.732;7.690;2023-02-18T07:34:10;11.50;99.90
61412;DHT22;47278;49.732;7.690;2023-02-18T07:36:35;11.50;99.90
61412;DHT22;47278;49.732;7.690;2023-02-18T07:39:03;11.50;99.90
61412;DHT22;47278;49.732;7.690;2023-02-18T07:41:28;11.50;99.90
61412;DHT22;47278;49.732;7.690;2023-02-18T07:43:54;11.50;99.90
61412;DHT22;47278;49.732;7.690;2023-02-18T07:46:19;11.50;99.90
61412;DHT22;47278;49.732;7.690;2023-02-18T07:48:45;11.50;99.90
61412;DHT22;47278;49.732;7.690;2023-02-18T07:51:11;11.50;99.90
61412;DHT22;47278;49.732;7.690;2023-02-18T07:53:37;11.50;99.90
61412;DHT22;47278;49.732;7.690;2023-02-18T07:56:03;11.40;99.90
61412;DHT22;47278;49.732;7.690;2023-02-18T07:58:30;11.50;99.90
61412;DHT22;47278;49.732;7.690;2023-02-18T08:00:56;11.50;99.90
61412;DHT22;47278;49.732;7.690;2023-02-18T08:03:23;11.40;99.90
61412;DHT22;47278;49.732;7.690;2023-02-18T08:05:50;11.50;99.90
61412;DHT22;47278;49.732;7.690;2023-02-18T08:08:18;11.50;99.90
61412;DHT22;47278;49.732;7.690;2023-02-18T08:10:47;11.50;99.90
61412;DHT22;47278;49.732;7.690;2023-02-18T08:13:13;11.50;99.90
61412;DHT22;47278;49.732;7.690;2023-02-18T08:15:38;11.50;99.90
61412;DHT22;47278;49.732;7.690;2023-02-18T08:18:05;11.60;99.90
61412;DHT22;47278;49.732;7.690;2023-02-18T08:20:34;11.60;99.90
61412;DHT22;47278;49.732;7.690;2023-02-18T08:22:59;11.60;99.90
61412;DHT22;47278;49.732;7.690;2023-02-18T08:25:25;11.60;99.90
61412;DHT22;47278;49.732;7.690;2023-02-18T08:27:50;11.60;99.90
61412;DHT22;47278;49.732;7.690;2023-02-18T08:30:16;11.60;99.90
61412;DHT22;47278;49.732;7.690;2023-02-18T08:32:42;11.60;99.90
61412;DHT22;47278;49.732;7.690;2023-02-18T08:35:08;11.60;99.90
61412;DHT22;47278;49.732;7.690;2023-02-18T08:37:34;11.60;99.90
61412;DHT22;47278;49.732;7.690;2023-02-18T08:40:00;11.70;99.90
61412;DHT22;47278;49.732;7.690;2023-02-18T08:42:26;11.70;99.90
61412;DHT22;47278;49.732;7.690;2023-02-18T08:44:51;11.70;99.90
61412;DHT22;47278;49.732;7.690;2023-02-18T08:47:19;11.70;99.90
61412;DHT22;47278;49.732;7.690;2023-02-18T08:49:45;11.80;99.90
61412;DHT22;47278;49.732;7.690;2023-02-18T08:52:11;11.80;99.90
61412;DHT22;47278;49.732;7.690;2023-02-18T08:54:36;11.80;99.90
61412;DHT22;47278;49.732;7.690;2023-02-18T08:57:02;11.80;99.90
61412;DHT22;47278;49.732;7.690;2023-02-18T08:59:27;11.80;99.90
61412;DHT22;47278;49.732;7.690;2023-02-18T09:01:53;11.80;99.90
61412;DHT22;47278;49.732;7.690;2023-02-18T09:04:19;11.80;99.90
61412;DHT22;47278;49.732;7.690;2023-02-18T09:06:46;11.90;99.90
61412;DHT22;47278;49.732;7.690;2023-02-18T09:09:11;12.00;99.90
61412;DHT22;47278;49.732;7.690;2023-02-18T09:11:37;12.00;99.90
61412;DHT22;47278;49.732;7.690;2023-02-18T09:14:02;12.10;99.90
61412;DHT22;47278;49.732;7.690;2023-02-18T09:16:28;12.30;99.90
61412;DHT22;47278;49.732;7.690;2023-02-18T09:18:54;12.30;99.90
61412;DHT22;47278;49.732;7.690;2023-02-18T09:21:23;12.20;99.90
61412;DHT22;47278;49.732;7.690;2023-02-18T09:23:49;12.20;99.90
61412;DHT22;47278;49.732;7.690;2023-02-18T09:26:16;12.30;99.90
61412;DHT22;47278;49.732;7.690;2023-02-18T09:28:42;12.30;99.90
61412;DHT22;47278;49.732;7.690;2023-02-18T09:31:12;12.20;99.90
61412;DHT22;47278;49.732;7.690;2023-02-18T09:33:39;12.20;99.90
61412;DHT22;47278;49.732;7.690;2023-02-18T09:36:05;12.20;99.90
61412;DHT22;47278;49.732;7.690;2023-02-18T09:38:31;12.20;99.90
61412;DHT22;47278;49.732;7.690;2023-02-18T09:40:57;12.20;99.90
61412;DHT22;47278;49.732;7.690;2023-02-18T09:45:52;12.40;99.90
61412;DHT22;47278;49.732;7.690;2023-02-18T09:48:19;12.40;99.90
61412;DHT22;47278;49.732;7.690;2023-02-18T09:50:46;12.50;99.90
61412;DHT22;47278;49.732;7.690;2023-02-18T09:53:14;12.50;99.90
61412;DHT22;47278;49.732;7.690;2023-02-18T09:55:40;12.50;99.90
61412;DHT22;47278;49.732;7.690;2023-02-18T09:58:07;12.50;99.90
61412;DHT22;47278;49.732;7.690;2023-02-18T10:00:37;12.60;99.90
61412;DHT22;47278;49.732;7.690;2023-02-18T10:03:14;12.60;99.90
61412;DHT22;47278;49.732;7.690;2023-02-18T10:05:45;12.60;99.90
61412;DHT22;47278;49.732;7.690;2023-02-18T10:08:16;12.70;99.90
61412;DHT22;47278;49.732;7.690;2023-02-18T10:10:44;12.70;99.90
61412;DHT22;47278;49.732;7.690;2023-02-18T10:13:11;12.70;99.90
61412;DHT22;47278;49.732;7.690;2023-02-18T10:15:37;12.50;99.90
61412;DHT22;47278;49.732;7.690;2023-02-18T10:18:03;12.40;99.90
61412;DHT22;47278;49.732;7.690;2023-02-18T10:20:31;9.70;99.90
61412;DHT22;47278;49.732;7.690;2023-02-18T10:22:59;12.20;99.90
61412;DHT22;47278;49.732;7.690;2023-02-18T10:25:25;12.20;99.90
61412;DHT22;47278;49.732;7.690;2023-02-18T10:27:51;12.20;99.90
61412;DHT22;47278;49.732;7.690;2023-02-18T10:32:45;12.10;99.90
61412;DHT22;47278;49.732;7.690;2023-02-18T10:35:22;12.10;99.90
61412;DHT22;47278;49.732;7.690;2023-02-18T10:38:04;12.20;99.90
61412;DHT22;47278;49.732;7.690;2023-02-18T10:43:06;12.20;99.90
61412;DHT22;47278;49.732;7.690;2023-02-18T10:45:43;12.20;99.90
61412;DHT22;47278;49.732;7.690;2023-02-18T10:50:40;12.20;99.90
61412;DHT22;47278;49.732;7.690;2023-02-18T10:53:11;12.20;99.90
61412;DHT22;47278;49.732;7.690;2023-02-18T10:55:44;12.20;99.90
61412;DHT22;47278;49.732;7.690;2023-02-18T11:00:48;12.20;99.90
61412;DHT22;47278;49.732;7.690;2023-02-18T11:03:21;12.20;99.90
61412;DHT22;47278;49.732;7.690;2023-02-18T11:05:47;12.20;99.90
61412;DHT22;47278;49.732;7.690;2023-02-18T11:08:19;12.20;99.90
61412;DHT22;47278;49.732;7.690;2023-02-18T11:10:45;12.20;99.90
61412;DHT22;47278;49.732;7.690;2023-02-18T11:13:14;12.20;99.90
61412;DHT22;47278;49.732;7.690;2023-02-18T11:16:00;12.10;99.90
61412;DHT22;47278;49.732;7.690;2023-02-18T11:18:40;12.20;99.90
61412;DHT22;47278;49.732;7.690;2023-02-18T11:21:17;12.10;99.90
61412;DHT22;47278;49.732;7.690;2023-02-18T11:23:45;12.10;99.90
61412;DHT22;47278;49.732;7.690;2023-02-18T11:26:12;12.20;99.90
61412;DHT22;47278;49.732;7.690;2023-02-18T11:28:46;12.20;99.90
61412;DHT22;47278;49.732;7.690;2023-02-18T11:31:22;12.20;99.90
61412;DHT22;47278;49.732;7.690;2023-02-18T11:33:53;12.10;99.90
61412;DHT22;47278;49.732;7.690;2023-02-18T11:36:23;12.10;99.90
61412;DHT22;47278;49.732;7.690;2023-02-18T11:39:35;12.10;99.90
61412;DHT22;47278;49.732;7.690;2023-02-18T11:41:37;12.10;99.90
61412;DHT22;47278;49.732;7.690;2023-02-18T11:44:05;12.10;99.90
61412;DHT22;47278;49.732;7.690;2023-02-18T11:46:31;12.10;99.90
61412;DHT22;47278;49.732;7.690;2023-02-18T11:49:10;12.10;99.90
61412;DHT22;47278;49.732;7.690;2023-02-18T11:51:36;12.00;99.90
61412;DHT22;47278;49.732;7.690;2023-02-18T11:56:34;12.10;99.90
61412;DHT22;47278;49.732;7.690;2023-02-18T11:59:00;12.10;99.90
61412;DHT22;47278;49.732;7.690;2023-02-18T12:01:41;12.10;99.90
61412;DHT22;47278;49.732;7.690;2023-02-18T12:04:18;12.20;99.90
61412;DHT22;47278;49.732;7.690;2023-02-18T12:06:50;12.20;99.90
61412;DHT22;47278;49.732;7.690;2023-02-18T12:11:59;12.30;99.90
61412;DHT22;47278;49.732;7.690;2023-02-18T12:14:26;12.40;99.90
61412;DHT22;47278;49.732;7.690;2023-02-18T12:27:22;12.40;99.90
61412;DHT22;47278;49.732;7.690;2023-02-18T12:30:02;11.10;99.90
61412;DHT22;47278;49.732;7.690;2023-02-18T12:38:24;12.60;99.90
61412;DHT22;47278;49.732;7.690;2023-02-18T12:41:01;12.60;99.90
61412;DHT22;47278;49.732;7.690;2023-02-18T13:02:03;13.00;99.90
61412;DHT22;47278;49.732;7.690;2023-02-18T13:12:45;12.70;99.90
61412;DHT22;47278;49.732;7.690;2023-02-18T13:15:15;12.70;99.90
61412;DHT22;47278;49.732;7.690;2023-02-18T13:17:41;12.70;99.90
61412;DHT22;47278;49.732;7.690;2023-02-18T13:20:19;13.00;99.90
61412;DHT22;47278;49.732;7.690;2023-02-18T13:22:46;13.10;99.90
61412;DHT22;47278;49.732;7.690;2023-02-18T13:25:14;13.10;99.90
61412;DHT22;47278;49.732;7.690;2023-02-18T13:27:50;13.30;99.90
61412;DHT22;47278;49.732;7.690;2023-02-18T13:30:30;13.40;99.90
61412;DHT22;47278;49.732;7.690;2023-02-18T13:35:34;13.40;99.90
61412;DHT22;47278;49.732;7.690;2023-02-18T13:40:45;13.30;99.90
61412;DHT22;47278;49.732;7.690;2023-02-18T13:43:32;13.30;99.90
61412;DHT22;47278;49.732;7.690;2023-02-18T13:48:28;13.40;99.90
61412;DHT22;47278;49.732;7.690;2023-02-18T13:50:59;13.90;99.90
61412;DHT22;47278;49.732;7.690;2023-02-18T13:53:27;13.80;99.90
61412;DHT22;47278;49.732;7.690;2023-02-18T13:55:55;13.80;99.90
61412;DHT22;47278;49.732;7.690;2023-02-18T14:00:52;13.70;99.90
61412;DHT22;47278;49.732;7.690;2023-02-18T14:03:30;13.50;99.90
61412;DHT22;47278;49.732;7.690;2023-02-18T14:05:56;13.70;99.90
61412;DHT22;47278;49.732;7.690;2023-02-18T14:08:35;13.30;99.90
61412;DHT22;47278;49.732;7.690;2023-02-18T14:11:23;13.40;99.90
61412;DHT22;47278;49.732;7.690;2023-02-18T14:16:24;13.30;99.90
61412;DHT22;47278;49.732;7.690;2023-02-18T14:18:54;13.50;99.90
61412;DHT22;47278;49.732;7.690;2023-02-18T14:21:21;13.30;99.90
61412;DHT22;47278;49.732;7.690;2023-02-18T14:26:16;12.90;99.90
61412;DHT22;47278;49.732;7.690;2023-02-18T14:33:41;12.80;99.90
61412;DHT22;47278;49.732;7.690;2023-02-18T14:36:15;12.60;99.90
61412;DHT22;47278;49.732;7.690;2023-02-18T14:39:05;12.60;99.90
61412;DHT22;47278;49.732;7.690;2023-02-18T14:44:07;12.40;99.90
61412;DHT22;47278;49.732;7.690;2023-02-18T14:46:49;12.40;99.90
61412;DHT22;47278;49.732;7.690;2023-02-18T14:49:39;12.40;99.90
61412;DHT22;47278;49.732;7.690;2023-02-18T14:52:53;12.30;99.90
61412;DHT22;47278;49.732;7.690;2023-02-18T14:54:53;12.30;99.90
61412;DHT22;47278;49.732;7.690;2023-02-18T14:57:18;12.30;99.90
61412;DHT22;47278;49.732;7.690;2023-02-18T14:59:48;12.20;99.90
61412;DHT22;47278;49.732;7.690;2023-02-18T15:02:23;12.10;99.90
61412;DHT22;47278;49.732;7.690;2023-02-18T15:04:51;12.10;99.90
61412;DHT22;47278;49.732;7.690;2023-02-18T15:07:18;12.30;99.90
61412;DHT22;47278;49.732;7.690;2023-02-18T15:09:47;12.10;99.90
61412;DHT22;47278;49.732;7.690;2023-02-18T15:12:15;9.30;99.90
61412;DHT22;47278;49.732;7.690;2023-02-18T15:14:42;11.90;99.90
61412;DHT22;47278;49.732;7.690;2023-02-18T15:17:12;11.90;99.90
61412;DHT22;47278;49.732;7.690;2023-02-18T15:19:48;11.90;99.90
61412;DHT22;47278;49.732;7.690;2023-02-18T15:22:15;11.80;99.90
61412;DHT22;47278;49.732;7.690;2023-02-18T15:24:41;11.80;99.90
61412;DHT22;47278;49.732;7.690;2023-02-18T15:27:10;11.80;99.90
61412;DHT22;47278;49.732;7.690;2023-02-18T15:29:37;11.80;99.90
61412;DHT22;47278;49.732;7.690;2023-02-18T15:32:19;11.80;99.90
61412;DHT22;47278;49.732;7.690;2023-02-18T15:34:48;11.80;99.90
61412;DHT22;47278;49.732;7.690;2023-02-18T15:37:14;11.70;99.90
61412;DHT22;47278;49.732;7.690;2023-02-18T15:39:40;11.70;99.90
61412;DHT22;47278;49.732;7.690;2023-02-18T15:44:35;11.60;99.90
61412;DHT22;47278;49.732;7.690;2023-02-18T15:47:02;11.60;99.90
61412;DHT22;47278;49.732;7.690;2023-02-18T15:49:28;11.60;99.90
61412;DHT22;47278;49.732;7.690;2023-02-18T15:51:55;11.50;99.90
61412;DHT22;47278;49.732;7.690;2023-02-18T15:54:22;11.60;99.90
61412;DHT22;47278;49.732;7.690;2023-02-18T15:56:54;11.50;99.90
61412;DHT22;47278;49.732;7.690;2023-02-18T15:59:27;11.40;99.90
61412;DHT22;47278;49.732;7.690;2023-02-18T16:04:21;11.40;99.90
61412;DHT22;47278;49.732;7.690;2023-02-18T16:06:51;11.40;99.90
61412;DHT22;47278;49.732;7.690;2023-02-18T16:09:22;11.40;99.90
61412;DHT22;47278;49.732;7.690;2023-02-18T16:12:03;11.40;99.90
61412;DHT22;47278;49.732;7.690;2023-02-18T16:19:29;11.40;99.90
61412;DHT22;47278;49.732;7.690;2023-02-18T16:21:56;11.30;99.90
61412;DHT22;47278;49.732;7.690;2023-02-18T16:24:28;12.70;99.90
61412;DHT22;47278;49.732;7.690;2023-02-18T16:26:58;11.30;99.90
61412;DHT22;47278;49.732;7.690;2023-02-18T16:29:25;11.30;99.90
61412;DHT22;47278;49.732;7.690;2023-02-18T16:31:51;11.30;99.90
61412;DHT22;47278;49.732;7.690;2023-02-18T16:34:17;11.30;99.90
61412;DHT22;47278;49.732;7.690;2023-02-18T16:36:43;11.20;99.90
61412;DHT22;47278;49.732;7.690;2023-02-18T16:39:28;11.20;99.90
61412;DHT22;47278;49.732;7.690;2023-02-18T16:41:54;11.20;99.90
61412;DHT22;47278;49.732;7.690;2023-02-18T16:44:20;11.20;99.90
61412;DHT22;47278;49.732;7.690;2023-02-18T16:46:45;11.10;99.90
61412;DHT22;47278;49.732;7.690;2023-02-18T16:49:11;11.10;99.90
61412;DHT22;47278;49.732;7.690;2023-02-18T16:51:37;11.00;99.90
61412;DHT22;47278;49.732;7.690;2023-02-18T16:54:03;11.00;99.90
61412;DHT22;47278;49.732;7.690;2023-02-18T16:56:30;11.00;99.90
61412;DHT22;47278;49.732;7.690;2023-02-18T16:58:56;11.00;99.90
61412;DHT22;47278;49.732;7.690;2023-02-18T17:03:49;11.00;99.90
61412;DHT22;47278;49.732;7.690;2023-02-18T17:06:15;11.00;99.90
61412;DHT22;47278;49.732;7.690;2023-02-18T17:08:41;10.90;99.90
61412;DHT22;47278;49.732;7.690;2023-02-18T17:11:08;10.90;99.90
61412;DHT22;47278;49.732;7.690;2023-02-18T17:13:39;10.90;99.90
61412;DHT22;47278;49.732;7.690;2023-02-18T17:16:04;10.90;99.90
61412;DHT22;47278;49.732;7.690;2023-02-18T17:18:30;10.90;99.90
61412;DHT22;47278;49.732;7.690;2023-02-18T17:20:55;10.90;99.90
61412;DHT22;47278;49.732;7.690;2023-02-18T17:23:22;10.90;99.90
61412;DHT22;47278;49.732;7.690;2023-02-18T17:25:48;10.90;99.90
61412;DHT22;47278;49.732;7.690;2023-02-18T17:28:15;11.00;99.90
61412;DHT22;47278;49.732;7.690;2023-02-18T17:30:44;10.90;99.90
61412;DHT22;47278;49.732;7.690;2023-02-18T17:33:11;10.90;99.90
61412;DHT22;47278;49.732;7.690;2023-02-18T17:35:39;10.90;99.90
61412;DHT22;47278;49.732;7.690;2023-02-18T17:38:09;10.90;99.90
61412;DHT22;47278;49.732;7.690;2023-02-18T17:40:35;11.00;99.90
61412;DHT22;47278;49.732;7.690;2023-02-18T17:43:00;10.90;99.90